createdAt,value
2022-09-21T00:01:21.447Z,92.85
2022-09-21T00:03:54.032Z,93.17
2022-09-21T00:06:23.331Z,93.41
2022-09-21T00:08:51.745Z,93.47
2022-09-21T00:11:21.363Z,93.87
2022-09-21T00:13:48.910Z,94.13
2022-09-21T00:16:17.482Z,93.99
2022-09-21T00:18:45.586Z,94.03
2022-09-21T00:21:16.072Z,94.66
2022-09-21T00:23:44.243Z,94.26
2022-09-21T00:26:13.993Z,94.41
2022-09-21T00:28:42.288Z,94.23
2022-09-21T00:31:12.198Z,94.41
2022-09-21T00:33:40.820Z,94.13
2022-09-21T00:36:10.631Z,94.50
2022-09-21T00:38:39.895Z,94.43
2022-09-21T00:41:09.332Z,94.35
2022-09-21T00:43:38.608Z,94.71
2022-09-21T00:46:13.550Z,94.57
2022-09-21T00:48:42.092Z,94.46
2022-09-21T00:51:10.012Z,94.38
2022-09-21T00:53:39.844Z,94.97
2022-09-21T00:56:10.393Z,94.65
2022-09-21T00:58:45.052Z,94.94
2022-09-21T01:01:15.183Z,95.12
2022-09-21T01:03:44.560Z,95.75
2022-09-21T01:06:13.196Z,96.48
2022-09-21T01:08:43.228Z,96.37
2022-09-21T01:11:30.226Z,95.77
2022-09-21T01:14:25.621Z,95.81
2022-09-21T01:17:02.506Z,95.56
2022-09-21T01:20:05.731Z,94.69
2022-09-21T01:22:46.206Z,94.57
2022-09-21T01:25:32.094Z,94.49
2022-09-21T01:28:16.077Z,94.77
2022-09-21T01:30:49.076Z,94.49
2022-09-21T01:33:23.805Z,94.65
2022-09-21T01:35:56.134Z,95.12
2022-09-21T01:38:27.318Z,94.93
2022-09-21T01:41:00.156Z,94.72
2022-09-21T01:43:32.379Z,95.19
2022-09-21T01:46:03.908Z,95.84
2022-09-21T01:48:35.104Z,95.43
2022-09-21T01:51:06.342Z,95.04
2022-09-21T01:53:38.639Z,95.24
2022-09-21T01:56:11.768Z,95.32
2022-09-21T01:58:44.533Z,95.65
2022-09-21T02:01:19.096Z,95.89
2022-09-21T02:03:49.988Z,95.44
2022-09-21T02:06:19.137Z,95.43
2022-09-21T02:08:47.460Z,95.24
2022-09-21T02:11:15.022Z,95.24
2022-09-21T02:13:46.251Z,95.05
2022-09-21T02:16:30.272Z,95.30
2022-09-21T02:19:11.224Z,95.75
2022-09-21T02:21:51.273Z,96.03
2022-09-21T02:24:29.611Z,95.42
2022-09-21T02:27:05.011Z,95.81
2022-09-21T02:29:43.298Z,95.46
2022-09-21T02:32:20.460Z,96.18
2022-09-21T02:34:53.646Z,95.83
2022-09-21T02:37:31.066Z,95.32
2022-09-21T02:40:03.754Z,95.92
2022-09-21T02:42:35.886Z,95.86
2022-09-21T02:45:09.075Z,95.93
2022-09-21T02:47:46.795Z,96.12
2022-09-21T02:50:21.181Z,95.72
2022-09-21T02:52:48.904Z,96.34
2022-09-21T02:55:18.980Z,96.29
2022-09-21T02:57:48.831Z,96.06
2022-09-21T03:00:16.980Z,95.13
2022-09-21T03:02:46.620Z,95.38
2022-09-21T03:05:16.087Z,95.94
2022-09-21T03:07:43.635Z,95.90
2022-09-21T03:10:11.243Z,95.42
2022-09-21T03:12:38.794Z,95.46
2022-09-21T03:15:07.320Z,95.43
2022-09-21T03:17:34.864Z,95.66
2022-09-21T03:20:03.945Z,95.41
2022-09-21T03:22:31.445Z,95.93
2022-09-21T03:24:59.637Z,95.22
2022-09-21T03:27:27.514Z,95.84
2022-09-21T03:29:57.706Z,95.59
2022-09-21T03:32:27.627Z,96.11
2022-09-21T03:34:55.140Z,96.46
2022-09-21T03:37:23.983Z,96.47
2022-09-21T03:39:51.879Z,96.23
2022-09-21T03:42:19.486Z,96.01
2022-09-21T03:44:47.046Z,96.59
2022-09-21T03:47:14.530Z,96.11
2022-09-21T03:49:42.022Z,97.18
2022-09-21T03:52:09.522Z,96.98
2022-09-21T03:54:38.360Z,97.73
2022-09-21T03:57:05.962Z,98.16
2022-09-21T03:59:34.745Z,97.36
2022-09-21T04:02:02.363Z,96.31
2022-09-21T04:04:29.867Z,96.03
2022-09-21T04:06:57.388Z,96.67
2022-09-21T04:09:25.024Z,96.51
2022-09-21T04:11:53.998Z,96.83
2022-09-21T04:14:23.123Z,95.53
2022-09-21T04:16:50.803Z,96.10
2022-09-21T04:19:18.374Z,96.20
2022-09-21T04:21:46.068Z,97.47
2022-09-21T04:24:13.588Z,97.80
2022-09-21T04:26:41.655Z,96.81
2022-09-21T04:29:10.955Z,96.70
2022-09-21T04:31:38.489Z,95.50
2022-09-21T04:34:06.011Z,95.83
2022-09-21T04:36:36.646Z,96.04
2022-09-21T04:39:05.168Z,95.88
2022-09-21T04:41:32.755Z,95.93
2022-09-21T04:44:01.152Z,96.28
2022-09-21T04:46:30.128Z,95.88
2022-09-21T04:48:58.698Z,95.84
2022-09-21T04:51:26.292Z,96.53
2022-09-21T04:53:53.774Z,96.16
2022-09-21T04:56:21.404Z,95.37
2022-09-21T04:58:48.932Z,96.23
2022-09-21T05:01:16.516Z,95.18
2022-09-21T05:03:45.485Z,96.26
2022-09-21T05:06:13.386Z,99.17
2022-09-21T05:08:58.825Z,99.29
2022-09-21T05:11:27.197Z,95.37
2022-09-21T05:13:54.838Z,94.51
2022-09-21T05:16:22.364Z,94.00
2022-09-21T05:18:54.825Z,95.35
2022-09-21T05:21:22.739Z,95.45
2022-09-21T05:23:50.303Z,94.72
2022-09-21T05:26:17.880Z,95.64
2022-09-21T05:28:45.876Z,95.66
2022-09-21T05:31:28.335Z,95.52
2022-09-21T05:34:04.664Z,95.01
2022-09-21T05:36:43.037Z,94.94
2022-09-21T05:39:11.380Z,94.23
2022-09-21T05:41:39.512Z,94.54
2022-09-21T05:44:08.320Z,94.64
2022-09-21T05:46:40.452Z,95.42
2022-09-21T05:49:18.106Z,95.33
2022-09-21T05:51:57.478Z,96.57
2022-09-21T05:54:33.590Z,95.13
2022-09-21T05:57:09.799Z,95.48
2022-09-21T05:59:49.555Z,95.88
2022-09-21T06:02:29.826Z,96.34
2022-09-21T06:05:01.416Z,94.40
2022-09-21T06:07:28.980Z,95.17
2022-09-21T06:09:56.479Z,94.47
2022-09-21T06:12:24.045Z,95.19
2022-09-21T06:14:51.536Z,95.41
2022-09-21T06:17:19.098Z,94.61
2022-09-21T06:19:46.624Z,95.25
2022-09-21T06:22:15.471Z,96.35
2022-09-21T06:24:42.973Z,95.54
2022-09-21T06:27:10.517Z,95.74
2022-09-21T06:29:38.033Z,96.40
2022-09-21T06:32:06.055Z,96.49
2022-09-21T06:34:33.622Z,95.84
2022-09-21T06:37:01.135Z,96.32
2022-09-21T06:39:29.981Z,96.25
2022-09-21T06:41:57.479Z,95.79
2022-09-21T06:44:24.990Z,95.73
2022-09-21T06:46:52.517Z,95.30
2022-09-21T06:49:20.038Z,94.92
2022-09-21T06:51:48.393Z,95.80
2022-09-21T06:54:17.447Z,95.55
2022-09-21T06:56:46.468Z,95.28
2022-09-21T06:59:14.027Z,95.30
2022-09-21T07:01:41.609Z,94.22
2022-09-21T07:04:09.538Z,94.74
2022-09-21T07:06:37.222Z,93.65
2022-09-21T07:11:54.432Z,93.36
2022-09-21T07:14:23.282Z,94.12
2022-09-21T07:16:50.803Z,93.80
2022-09-21T07:19:19.068Z,93.39
2022-09-21T07:21:47.429Z,93.38
2022-09-21T07:24:15.941Z,93.19
2022-09-21T07:26:43.460Z,93.29
2022-09-21T07:29:12.436Z,92.91
2022-09-21T07:31:39.994Z,92.66
2022-09-21T07:34:07.619Z,93.05
2022-09-21T07:36:35.169Z,92.36
2022-09-21T07:39:02.993Z,93.71
2022-09-21T07:41:30.576Z,93.75
2022-09-21T07:43:58.210Z,92.98
2022-09-21T07:46:27.128Z,93.23
2022-09-21T07:48:54.928Z,92.45
2022-09-21T07:51:23.536Z,92.00
2022-09-21T07:53:57.189Z,91.54
2022-09-21T07:56:24.835Z,91.50
2022-09-21T07:59:06.456Z,91.56
2022-09-21T08:01:36.971Z,90.76
2022-09-21T08:04:06.173Z,91.47
2022-09-21T08:06:35.703Z,91.49
2022-09-21T08:09:04.665Z,91.31
2022-09-21T08:11:33.528Z,90.90
2022-09-21T08:14:02.903Z,89.22
2022-09-21T08:16:31.995Z,88.17
2022-09-21T08:19:02.078Z,87.40
2022-09-21T08:21:29.796Z,87.09
2022-09-21T08:23:57.935Z,87.21
2022-09-21T08:26:26.312Z,88.57
2022-09-21T08:28:58.593Z,88.80
2022-09-21T08:31:27.034Z,88.07
2022-09-21T08:33:56.919Z,87.07
2022-09-21T08:36:26.248Z,86.87
2022-09-21T08:38:54.991Z,85.18
2022-09-21T08:41:25.395Z,83.16
2022-09-21T08:43:56.455Z,82.42
2022-09-21T08:46:28.179Z,83.02
2022-09-21T08:48:59.601Z,81.63
2022-09-21T08:51:32.999Z,82.33
2022-09-21T08:54:04.686Z,79.15
2022-09-21T08:56:53.408Z,76.77
2022-09-21T08:59:20.312Z,76.18
2022-09-21T09:01:59.525Z,72.68
2022-09-21T09:04:46.833Z,71.53
2022-09-21T09:07:31.616Z,69.40
2022-09-21T09:10:08.182Z,70.48
2022-09-21T09:12:50.488Z,70.97
2022-09-21T09:15:34.120Z,68.56
2022-09-21T09:18:10.259Z,68.87
2022-09-21T09:20:41.076Z,67.59
2022-09-21T09:23:16.012Z,66.48
2022-09-21T09:25:47.495Z,65.77
2022-09-21T09:28:25.443Z,64.66
2022-09-21T09:31:00.852Z,65.48
2022-09-21T09:33:36.412Z,65.15
2022-09-21T09:36:06.800Z,64.12
2022-09-21T09:38:40.626Z,65.46
2022-09-21T09:41:26.105Z,63.18
2022-09-21T09:44:03.715Z,62.23
2022-09-21T09:46:37.335Z,63.35
2022-09-21T09:49:24.879Z,61.89
2022-09-21T09:51:52.501Z,60.93
2022-09-21T09:54:25.305Z,60.55
2022-09-21T09:56:55.027Z,59.43
2022-09-21T09:59:30.391Z,60.67
2022-09-21T10:02:02.093Z,58.52
2022-09-21T10:04:29.964Z,58.58
2022-09-21T10:06:57.577Z,58.57
2022-09-21T10:09:29.154Z,57.76
2022-09-21T10:12:00.784Z,54.09
2022-09-21T10:14:33.162Z,55.41
2022-09-21T10:17:06.420Z,53.80
2022-09-21T10:19:34.293Z,53.02
2022-09-21T10:22:03.504Z,53.94
2022-09-21T10:24:35.540Z,51.33
2022-09-21T10:27:07.291Z,50.97
2022-09-21T10:29:43.692Z,51.80
2022-09-21T10:32:23.480Z,49.77
2022-09-21T10:35:04.122Z,49.61
2022-09-21T10:37:34.739Z,47.45
2022-09-21T10:40:04.657Z,46.22
2022-09-21T10:42:37.279Z,46.28
2022-09-21T10:45:15.888Z,46.11
2022-09-21T10:47:46.003Z,47.79
2022-09-21T10:50:25.166Z,45.08
2022-09-21T10:52:58.663Z,44.85
2022-09-21T10:55:30.000Z,44.48
2022-09-21T10:57:58.892Z,42.03
2022-09-21T11:00:41.379Z,44.92
2022-09-21T11:03:34.607Z,44.50
2022-09-21T11:06:06.200Z,44.80
2022-09-21T11:08:38.513Z,44.09
2022-09-21T11:11:21.256Z,44.45
2022-09-21T11:13:54.293Z,45.36
2022-09-21T11:16:27.196Z,46.24
2022-09-21T11:19:04.644Z,45.91
2022-09-21T11:21:37.193Z,45.71
2022-09-21T11:24:23.963Z,45.95
2022-09-21T11:26:57.360Z,45.25
2022-09-21T11:32:06.066Z,44.59
2022-09-21T11:34:44.831Z,43.24
2022-09-21T11:37:17.146Z,43.13
2022-09-21T11:39:51.936Z,43.39
2022-09-21T11:42:29.448Z,42.78
2022-09-21T11:44:59.495Z,43.58
2022-09-21T11:47:37.798Z,42.06
2022-09-21T11:50:29.752Z,42.45
2022-09-21T11:53:06.641Z,41.77
2022-09-21T11:55:44.905Z,41.23
2022-09-21T11:58:18.548Z,39.19
2022-09-21T12:00:52.145Z,37.10
2022-09-21T12:03:33.376Z,38.41
2022-09-21T12:06:07.488Z,37.95
2022-09-21T12:08:49.648Z,37.03
2022-09-21T12:11:24.611Z,35.31
2022-09-21T12:13:58.107Z,34.57
2022-09-21T12:16:33.030Z,34.88
2022-09-21T12:19:05.260Z,33.07
2022-09-21T12:21:35.932Z,32.08
2022-09-21T12:24:05.375Z,31.77
2022-09-21T12:26:34.512Z,31.19
2022-09-21T12:29:06.400Z,31.68
2022-09-21T12:31:38.172Z,31.00
2022-09-21T12:34:09.607Z,30.29
2022-09-21T12:36:41.976Z,30.39
2022-09-21T12:39:14.464Z,30.03
2022-09-21T12:41:46.104Z,31.50
2022-09-21T12:44:19.391Z,30.60
2022-09-21T12:46:52.881Z,29.56
2022-09-21T12:49:26.805Z,30.39
2022-09-21T12:51:56.391Z,28.61
2022-09-21T12:54:27.283Z,28.98
2022-09-21T12:57:03.728Z,29.45
2022-09-21T12:59:42.103Z,28.80
2022-09-21T13:02:17.615Z,29.83
2022-09-21T13:04:50.298Z,30.88
2022-09-21T13:07:40.882Z,32.15
2022-09-21T13:10:15.092Z,33.05
2022-09-21T13:12:44.138Z,31.64
2022-09-21T13:15:17.116Z,30.83
2022-09-21T13:17:44.639Z,31.10
2022-09-21T13:20:17.623Z,31.21
2022-09-21T13:22:45.708Z,31.43
2022-09-21T13:25:20.216Z,31.96
2022-09-21T13:28:00.459Z,30.66
2022-09-21T13:30:37.020Z,28.44
2022-09-21T13:33:05.504Z,28.56
2022-09-21T13:35:50.799Z,25.85
2022-09-21T13:38:23.563Z,25.78
2022-09-21T13:40:57.022Z,25.36
2022-09-21T13:43:39.302Z,24.97
2022-09-21T13:46:08.043Z,27.28
2022-09-21T13:48:35.996Z,26.89
2022-09-21T13:51:10.032Z,26.09
2022-09-21T13:53:40.807Z,26.24
2022-09-21T13:56:09.861Z,25.91
2022-09-21T13:58:41.691Z,25.74
2022-09-21T14:01:42.393Z,26.68
2022-09-21T14:04:06.232Z,26.06
2022-09-21T14:06:35.571Z,24.96
2022-09-21T14:09:05.312Z,23.95
2022-09-21T14:11:34.811Z,23.42
2022-09-21T14:14:05.689Z,22.17
2022-09-21T14:16:52.133Z,21.67
2022-09-21T14:19:38.336Z,20.21
2022-09-21T14:22:26.472Z,20.54
2022-09-21T14:25:09.348Z,20.33
2022-09-21T14:27:45.308Z,18.88
2022-09-21T14:30:19.788Z,18.67
2022-09-21T14:32:51.029Z,20.37
2022-09-21T14:35:19.976Z,21.41
2022-09-21T14:37:51.979Z,22.88
2022-09-21T14:40:21.274Z,22.92
2022-09-21T14:42:50.235Z,22.55
2022-09-21T14:45:18.975Z,22.25
2022-09-21T14:47:53.848Z,23.80
2022-09-21T14:50:32.200Z,26.57
2022-09-21T14:53:07.938Z,26.39
2022-09-21T14:55:45.108Z,24.04
2022-09-21T14:58:22.905Z,21.32
2022-09-21T15:00:51.252Z,20.19
2022-09-21T15:03:38.902Z,19.24
2022-09-21T15:06:26.419Z,18.59
2022-09-21T15:09:15.120Z,18.65
2022-09-21T15:11:46.953Z,18.63
2022-09-21T15:14:23.347Z,18.63
2022-09-21T15:16:51.683Z,17.30
2022-09-21T15:19:23.539Z,17.63
2022-09-21T15:21:52.231Z,17.63
2022-09-21T15:24:25.812Z,16.71
2022-09-21T15:26:55.427Z,16.48
2022-09-21T15:29:26.084Z,16.45
2022-09-21T15:31:54.042Z,16.34
2022-09-21T15:34:22.413Z,16.19
2022-09-21T15:36:50.884Z,16.00
2022-09-21T15:39:26.404Z,15.69
2022-09-21T15:42:08.668Z,16.33
2022-09-21T15:44:38.379Z,16.09
2022-09-21T15:47:08.377Z,15.97
2022-09-21T15:49:36.584Z,16.78
2022-09-21T15:52:06.198Z,17.59
2022-09-21T15:54:35.306Z,19.63
2022-09-21T15:57:08.593Z,19.91
2022-09-21T15:59:37.483Z,20.47
2022-09-21T16:02:12.179Z,22.46
2022-09-21T16:04:49.301Z,23.62
2022-09-21T16:07:26.034Z,24.99
2022-09-21T16:09:53.390Z,27.18
2022-09-21T16:12:31.698Z,28.33
2022-09-21T16:15:04.334Z,29.24
2022-09-21T16:17:36.521Z,30.97
2022-09-21T16:20:14.644Z,32.29
2022-09-21T16:22:43.429Z,33.36
2022-09-21T16:25:21.487Z,34.10
2022-09-21T16:27:54.235Z,31.97
2022-09-21T16:30:42.520Z,33.39
2022-09-21T16:33:39.763Z,33.89
2022-09-21T16:36:22.426Z,35.16
2022-09-21T16:38:50.349Z,36.19
2022-09-21T16:41:18.685Z,37.00
2022-09-21T16:43:46.147Z,36.37
2022-09-21T16:46:14.884Z,36.48
2022-09-21T16:48:42.258Z,36.96
2022-09-21T16:51:11.328Z,37.22
2022-09-21T16:53:38.691Z,37.32
2022-09-21T16:56:06.924Z,36.91
2022-09-21T16:58:34.307Z,37.70
2022-09-21T17:01:02.696Z,37.04
2022-09-21T17:03:34.721Z,37.63
2022-09-21T17:06:02.487Z,39.40
2022-09-21T17:08:30.194Z,40.62
2022-09-21T17:10:57.891Z,42.17
2022-09-21T17:13:25.278Z,44.40
2022-09-21T17:15:53.305Z,45.72
2022-09-21T17:18:20.683Z,47.00
2022-09-21T17:20:49.515Z,48.87
2022-09-21T17:23:16.900Z,50.04
2022-09-21T17:25:45.516Z,51.33
2022-09-21T17:28:14.359Z,52.75
2022-09-21T17:30:42.384Z,53.56
2022-09-21T17:33:10.824Z,54.80
2022-09-21T17:35:39.647Z,55.30
2022-09-21T17:38:13.965Z,56.22
2022-09-21T17:40:42.416Z,57.16
2022-09-21T17:43:17.740Z,58.62
2022-09-21T17:45:46.757Z,59.23
2022-09-21T17:48:18.412Z,60.76
2022-09-21T17:50:46.082Z,61.19
2022-09-21T17:53:32.785Z,61.87
2022-09-21T17:56:02.667Z,62.71
2022-09-21T17:58:41.212Z,63.33
2022-09-21T18:01:13.611Z,64.01
2022-09-21T18:03:42.443Z,65.05
2022-09-21T18:06:10.421Z,65.34
2022-09-21T18:08:40.128Z,66.37
2022-09-21T18:11:13.365Z,67.05
2022-09-21T18:13:45.659Z,66.78
2022-09-21T18:16:21.548Z,67.39
2022-09-21T18:18:52.848Z,68.24
2022-09-21T18:21:21.456Z,68.07
2022-09-21T18:24:13.496Z,69.31
2022-09-21T18:26:41.200Z,69.66
2022-09-21T18:29:37.997Z,70.42
2022-09-21T18:32:21.836Z,70.69
2022-09-21T18:35:05.305Z,71.20
2022-09-21T18:37:37.263Z,71.87
2022-09-21T18:40:11.004Z,71.97
2022-09-21T18:42:42.231Z,72.21
2022-09-21T18:45:14.107Z,72.61
2022-09-21T18:47:44.414Z,72.97
2022-09-21T18:50:19.437Z,73.42
2022-09-21T18:52:51.284Z,73.54
2022-09-21T18:55:24.951Z,74.10
2022-09-21T18:57:52.723Z,74.59
2022-09-21T19:00:20.938Z,75.42
2022-09-21T19:03:12.654Z,75.36
2022-09-21T19:05:38.214Z,75.35
2022-09-21T19:08:10.230Z,76.10
2022-09-21T19:10:40.305Z,76.51
2022-09-21T19:13:15.088Z,76.83
2022-09-21T19:16:00.536Z,77.28
2022-09-21T19:18:32.428Z,78.03
2022-09-21T19:21:07.133Z,78.24
2022-09-21T19:23:41.748Z,78.45
2022-09-21T19:26:15.831Z,78.51
2022-09-21T19:28:51.050Z,79.38
2022-09-21T19:31:19.774Z,79.16
2022-09-21T19:33:51.656Z,79.19
2022-09-21T19:36:19.306Z,79.61
2022-09-21T19:38:46.820Z,80.40
2022-09-21T19:41:24.279Z,80.30
2022-09-21T19:43:57.169Z,80.89
2022-09-21T19:46:33.327Z,80.53
2022-09-21T19:49:05.844Z,81.10
2022-09-21T19:51:38.233Z,80.99
2022-09-21T19:54:30.161Z,81.43
2022-09-21T19:57:16.691Z,81.78
2022-09-21T19:59:44.621Z,81.42
2022-09-21T20:02:13.380Z,81.63
2022-09-21T20:04:45.796Z,81.61
2022-09-21T20:07:18.800Z,81.63
2022-09-21T20:10:00.185Z,82.09
2022-09-21T20:12:31.755Z,82.86
2022-09-21T20:15:02.683Z,82.91
2022-09-21T20:17:34.534Z,83.31
2022-09-21T20:20:08.209Z,82.98
2022-09-21T20:22:37.026Z,82.71
2022-09-21T20:25:10.623Z,83.05
2022-09-21T20:27:40.825Z,83.25
2022-09-21T20:30:09.864Z,83.90
2022-09-21T20:32:38.453Z,83.87
2022-09-21T20:35:09.897Z,83.84
2022-09-21T20:37:37.788Z,83.85
2022-09-21T20:40:05.439Z,84.24
2022-09-21T20:42:34.255Z,84.82
2022-09-21T20:45:03.031Z,84.84
2022-09-21T20:47:30.380Z,85.02
2022-09-21T20:49:57.829Z,85.46
2022-09-21T20:52:25.259Z,85.57
2022-09-21T20:54:52.618Z,85.75
2022-09-21T20:57:20.177Z,85.41
2022-09-21T20:59:47.842Z,85.63
2022-09-21T21:02:17.124Z,86.02
2022-09-21T21:04:44.494Z,86.05
2022-09-21T21:07:11.961Z,86.71
2022-09-21T21:09:39.301Z,86.26
2022-09-21T21:12:06.879Z,86.54
2022-09-21T21:14:34.277Z,86.55
2022-09-21T21:17:02.248Z,86.93
2022-09-21T21:19:31.408Z,86.76
2022-09-21T21:21:58.802Z,86.99
2022-09-21T21:24:41.048Z,86.55
2022-09-21T21:27:09.682Z,86.94
2022-09-21T21:29:37.973Z,87.00
2022-09-21T21:32:05.690Z,86.88
2022-09-21T21:34:34.563Z,86.81
2022-09-21T21:37:01.943Z,87.28
2022-09-21T21:39:30.375Z,87.50
2022-09-21T21:41:57.725Z,87.89
2022-09-21T21:44:25.132Z,88.01
2022-09-21T21:46:53.255Z,87.50
2022-09-21T21:49:20.699Z,87.73
2022-09-21T21:51:50.031Z,87.96
2022-09-21T21:54:18.207Z,87.93
2022-09-21T21:56:45.661Z,87.95
2022-09-21T21:59:17.574Z,88.18
2022-09-21T22:01:45.439Z,88.18
2022-09-21T22:04:12.816Z,88.23
2022-09-21T22:06:40.540Z,88.15
2022-09-21T22:09:10.114Z,88.09
2022-09-21T22:11:38.119Z,88.60
2022-09-21T22:14:06.476Z,89.12
2022-09-21T22:16:34.982Z,88.91
2022-09-21T22:19:03.384Z,89.33
2022-09-21T22:21:32.266Z,89.10
2022-09-21T22:24:01.287Z,89.46
2022-09-21T22:26:31.671Z,89.33
2022-09-21T22:29:01.956Z,89.55
2022-09-21T22:31:31.598Z,89.51
2022-09-21T22:33:59.700Z,89.66
2022-09-21T22:36:27.663Z,90.16
2022-09-21T22:38:55.409Z,89.21
2022-09-21T22:41:23.689Z,90.62
2022-09-21T22:43:53.251Z,90.28
2022-09-21T22:46:20.923Z,89.45
2022-09-21T22:48:48.667Z,89.07
2022-09-21T22:51:16.656Z,89.59
2022-09-21T22:53:44.526Z,89.15
2022-09-21T22:56:13.643Z,89.37
2022-09-21T22:58:42.268Z,90.00
2022-09-21T23:01:12.085Z,89.45
2022-09-21T23:03:40.169Z,89.73
2022-09-21T23:06:08.906Z,88.86
2022-09-21T23:08:36.763Z,88.20
2022-09-21T23:11:09.020Z,88.32
2022-09-21T23:13:36.346Z,89.82
2022-09-21T23:16:04.836Z,89.30
2022-09-21T23:18:33.589Z,88.75
2022-09-21T23:21:01.872Z,88.51
2022-09-21T23:23:29.525Z,88.39
2022-09-21T23:26:05.034Z,88.58
2022-09-21T23:28:32.974Z,89.09
2022-09-21T23:31:01.143Z,89.58
2022-09-21T23:33:32.162Z,89.99
2022-09-21T23:36:01.148Z,89.04
2022-09-21T23:38:29.898Z,89.40
2022-09-21T23:41:04.031Z,89.08
2022-09-21T23:43:31.619Z,89.43
2022-09-21T23:45:59.218Z,89.80
2022-09-21T23:48:26.762Z,89.21
2022-09-21T23:50:54.416Z,87.87
2022-09-21T23:53:23.805Z,88.66
2022-09-21T23:55:51.259Z,88.54
2022-09-21T23:58:19.304Z,88.80
